Time,TemperatureF,DewpointF,PressureIn,WindDirection,WindDirectionDegrees,WindSpeedMPH,WindSpeedGustMPH,Humidity,HourlyPrecipIn,Conditions,Clouds,dailyrainin,SolarRadiationWatts/m^2,SoftwareType,DateUTC
2013-09-04 00:02:00,70.0,54.0,-100.00,SSE,162,0.0,6.0,56,-99.99,,,0.00,0.000000,,2013-09-04 07:02:00,
2013-09-04 00:11:00,70.0,54.0,-100.00,SSE,162,0.0,6.0,56,-99.99,,,0.00,0.000000,,2013-09-04 07:11:00,
2013-09-04 02:53:00,69.0,54.0,-100.00,SSE,148,1.0,5.0,58,-99.99,,,0.00,0.000000,,2013-09-04 09:53:00,
2013-09-04 03:03:00,69.0,54.0,-100.00,SSE,148,1.0,5.0,58,-99.99,,,0.00,0.000000,,2013-09-04 10:03:00,
2013-09-04 03:52:00,68.0,54.0,-100.00,SE,141,1.0,5.0,60,-99.99,,,0.00,0.000000,,2013-09-04 10:52:00,
2013-09-04 04:02:00,68.0,54.0,-100.00,SE,141,1.0,5.0,60,-99.99,,,0.00,0.000000,,2013-09-04 11:02:00,
2013-09-04 08:43:00,78.0,56.0,-100.00,SE,137,1.0,7.0,46,-99.99,,,0.00,81.000000,,2013-09-04 15:43:00,
2013-09-04 08:53:00,78.0,56.0,-100.00,SE,137,1.0,7.0,46,-99.99,,,0.00,81.000000,,2013-09-04 15:53:00,
2013-09-04 09:04:00,78.0,56.0,-100.00,SE,137,1.0,7.0,46,-99.99,,,0.00,81.000000,,2013-09-04 16:04:00,
2013-09-04 09:12:00,78.0,56.0,-100.00,SE,137,1.0,7.0,46,-99.99,,,0.00,81.000000,,2013-09-04 16:12:00,
2013-09-04 09:43:00,88.0,55.0,-100.00,NW,315,2.0,6.0,33,0.00,,,0.00,532.000000,,2013-09-04 16:43:00,
2013-09-04 09:53:00,88.0,55.0,-100.00,NW,315,2.0,6.0,33,0.00,,,0.00,532.000000,,2013-09-04 16:53:00,
2013-09-04 10:03:00,88.0,55.0,-100.00,NW,315,2.0,6.0,33,0.00,,,0.00,532.000000,,2013-09-04 17:03:00,
2013-09-04 10:13:00,88.0,55.0,-100.00,NW,315,2.0,6.0,33,0.00,,,0.00,532.000000,,2013-09-04 17:13:00,
2013-09-04 10:42:00,92.0,56.0,-100.00,SE,127,0.0,7.0,30,0.00,,,0.00,802.000000,,2013-09-04 17:42:00,
2013-09-04 10:53:00,92.0,56.0,-100.00,SE,127,0.0,7.0,30,0.00,,,0.00,802.000000,,2013-09-04 17:53:00,
2013-09-04 11:02:00,92.0,56.0,-100.00,SE,127,0.0,7.0,30,0.00,,,0.00,802.000000,,2013-09-04 18:02:00,
2013-09-04 11:12:00,92.0,56.0,-100.00,SE,127,0.0,7.0,30,0.00,,,0.00,802.000000,,2013-09-04 18:12:00,
2013-09-04 11:42:00,90.0,56.0,-100.00,SW,227,4.0,8.0,32,0.00,,,0.00,800.000000,,2013-09-04 18:42:00,
2013-09-04 11:52:00,90.0,56.0,-100.00,SW,227,4.0,8.0,32,0.00,,,0.00,800.000000,,2013-09-04 18:52:00,
2013-09-04 12:02:00,90.0,56.0,-100.00,SW,227,4.0,8.0,32,0.00,,,0.00,800.000000,,2013-09-04 19:02:00,
2013-09-04 12:11:00,90.0,56.0,-100.00,SW,227,4.0,8.0,32,0.00,,,0.00,800.000000,,2013-09-04 19:11:00,
2013-09-04 12:42:00,81.0,60.0,-100.00,SSE,162,7.0,21.0,49,-99.99,,,0.00,273.000000,,2013-09-04 19:42:00,
2013-09-04 12:52:00,81.0,60.0,-100.00,SSE,162,7.0,21.0,49,-99.99,,,0.00,273.000000,,2013-09-04 19:52:00,
2013-09-04 13:02:00,81.0,60.0,-100.00,SSE,162,7.0,21.0,49,-99.99,,,0.00,273.000000,,2013-09-04 20:02:00,
2013-09-04 13:11:00,81.0,60.0,-100.00,SSE,162,7.0,21.0,49,-99.99,,,0.00,273.000000,,2013-09-04 20:11:00,
2013-09-04 13:43:00,76.0,57.0,-100.00,South,169,5.0,16.0,52,0.00,,,0.00,156.000000,,2013-09-04 20:43:00,
2013-09-04 13:53:00,76.0,57.0,-100.00,South,169,5.0,16.0,52,0.00,,,0.00,156.000000,,2013-09-04 20:53:00,
2013-09-04 14:01:00,76.0,57.0,-100.00,South,169,5.0,16.0,52,0.00,,,0.00,156.000000,,2013-09-04 21:01:00,
2013-09-04 14:11:00,76.0,57.0,-100.00,South,169,5.0,16.0,52,0.00,,,0.00,156.000000,,2013-09-04 21:11:00,
2013-09-04 14:44:00,81.0,57.0,-100.00,East,80,3.0,12.0,44,0.00,,,0.00,254.000000,,2013-09-04 21:44:00,
2013-09-04 14:54:00,81.0,57.0,-100.00,East,80,3.0,12.0,44,0.00,,,0.00,254.000000,,2013-09-04 21:54:00,
2013-09-04 15:04:00,81.0,57.0,-100.00,East,80,3.0,12.0,44,0.00,,,0.00,254.000000,,2013-09-04 22:04:00,
2013-09-04 15:14:00,81.0,57.0,-100.00,East,80,3.0,12.0,44,0.00,,,0.00,254.000000,,2013-09-04 22:14:00,
2013-09-04 15:43:00,89.0,55.0,-100.00,ESE,122,5.0,19.0,32,0.00,,,0.00,946.000000,,2013-09-04 22:43:00,
2013-09-04 15:54:00,89.0,55.0,-100.00,ESE,122,5.0,19.0,32,0.00,,,0.00,946.000000,,2013-09-04 22:54:00,
2013-09-04 16:03:00,89.0,55.0,-100.00,ESE,122,5.0,19.0,32,0.00,,,0.00,946.000000,,2013-09-04 23:03:00,
2013-09-04 16:13:00,89.0,55.0,-100.00,ESE,122,5.0,19.0,32,0.00,,,0.00,946.000000,,2013-09-04 23:13:00,
2013-09-04 16:42:00,92.0,56.0,-100.00,SSE,165,4.0,14.0,30,0.00,,,0.00,856.000000,,2013-09-04 23:42:00,
2013-09-04 17:11:00,92.0,56.0,-100.00,SSE,165,4.0,14.0,30,0.00,,,0.00,856.000000,,2013-09-05 00:11:00,
2013-09-04 17:43:00,85.0,51.0,-100.00,SSE,152,0.0,11.0,31,-99.99,,,0.00,253.000000,,2013-09-05 00:43:00,
2013-09-04 17:52:00,85.0,51.0,-100.00,SSE,152,0.0,11.0,31,-99.99,,,0.00,253.000000,,2013-09-05 00:52:00,
2013-09-04 18:01:00,85.0,51.0,-100.00,SSE,152,0.0,11.0,31,-99.99,,,0.00,253.000000,,2013-09-05 01:01:00,
2013-09-04 18:11:00,85.0,51.0,-100.00,SSE,152,0.0,11.0,31,-99.99,,,0.00,253.000000,,2013-09-05 01:11:00,
2013-09-04 18:42:00,87.0,54.0,-100.00,NW,304,3.0,7.0,32,0.00,,,0.00,303.000000,,2013-09-05 01:42:00,
2013-09-04 18:52:00,87.0,54.0,-100.00,NW,304,3.0,7.0,32,0.00,,,0.00,303.000000,,2013-09-05 01:52:00,
2013-09-04 19:02:00,87.0,54.0,-100.00,NW,304,3.0,7.0,32,0.00,,,0.00,303.000000,,2013-09-05 02:02:00,
2013-09-04 19:11:00,87.0,54.0,-100.00,NW,304,3.0,7.0,32,0.00,,,0.00,303.000000,,2013-09-05 02:11:00,
2013-09-04 19:52:00,82.0,53.0,-100.00,WNW,284,2.0,12.0,37,0.00,,,0.00,78.000000,,2013-09-05 02:52:00,
2013-09-04 20:02:00,82.0,53.0,-100.00,WNW,284,2.0,12.0,37,0.00,,,0.00,78.000000,,2013-09-05 03:02:00,
2013-09-04 20:11:00,82.0,53.0,-100.00,WNW,284,2.0,12.0,37,0.00,,,0.00,78.000000,,2013-09-05 03:11:00,
2013-09-04 20:45:00,79.0,53.0,-100.00,SSE,151,0.0,8.0,41,0.00,,,0.00,4.000000,,2013-09-05 03:45:00,
2013-09-04 20:54:00,79.0,53.0,-100.00,SSE,151,0.0,8.0,41,0.00,,,0.00,4.000000,,2013-09-05 03:54:00,
2013-09-04 21:04:00,79.0,53.0,-100.00,SSE,151,0.0,8.0,41,0.00,,,0.00,4.000000,,2013-09-05 04:04:00,
2013-09-04 21:13:00,79.0,53.0,-100.00,SSE,151,0.0,8.0,41,0.00,,,0.00,4.000000,,2013-09-05 04:13:00,
2013-09-04 21:44:00,75.0,53.0,-100.00,SE,140,1.0,4.0,47,0.00,,,0.00,0.000000,,2013-09-05 04:44:00,
2013-09-04 21:53:00,75.0,53.0,-100.00,SE,140,1.0,4.0,47,0.00,,,0.00,0.000000,,2013-09-05 04:53:00,
2013-09-04 22:03:00,75.0,53.0,-100.00,SE,140,1.0,4.0,47,0.00,,,0.00,0.000000,,2013-09-05 05:03:00,
2013-09-04 22:12:00,75.0,53.0,-100.00,SE,140,1.0,4.0,47,0.00,,,0.00,0.000000,,2013-09-05 05:12:00,
2013-09-04 22:43:00,74.0,54.0,-100.00,South,189,0.0,4.0,49,0.00,,,0.00,0.000000,,2013-09-05 05:43:00,
2013-09-04 22:52:00,74.0,54.0,-100.00,South,189,0.0,4.0,49,0.00,,,0.00,0.000000,,2013-09-05 05:52:00,
2013-09-04 23:02:00,74.0,54.0,-100.00,South,189,0.0,4.0,49,0.00,,,0.00,0.000000,,2013-09-05 06:02:00,
2013-09-04 23:12:00,74.0,54.0,-100.00,South,189,0.0,4.0,49,0.00,,,0.00,0.000000,,2013-09-05 06:12:00,
2013-09-04 23:42:00,73.0,55.0,-100.00,SSE,165,0.0,4.0,53,0.00,,,0.00,0.000000,,2013-09-05 06:42:00,
2013-09-04 23:52:00,73.0,55.0,-100.00,SSE,165,0.0,4.0,53,0.00,,,0.00,0.000000,,2013-09-05 06:52:00,